Time;durP1;ratioP1;P1;durP2;ratioP2;P2;SDS_P1;SDS_P2;PMS_P1;PMS_P2;Temp;Humidity;BMP_temperature;BMP_pressure;BME280_temperature;BME280_humidity;BME280_pressure;Samples;Min_cycle;Max_cycle;Signal;HPM_P1;HPM_P2
2023/08/27 00:01:32;;;;;;;9.68;0.82;;;;;;;;;;5982306;24;20059;-85
2023/08/27 00:55:59;;;;;;;1.50;0.40;;;;;;;;;;6148179;23;20028;-85
2023/08/27 01:07:53;;;;;;;;;;;;;;;;;;;;;
2023/08/27 01:10:46;;;;;;;;;;;;;;;;;;;;;
2023/08/27 01:40:21;;;;;;;1.10;0.40;;;;;;;;;;6027185;23;20027;-85
2023/08/27 01:42:52;;;;;;;0.63;0.20;;;;;;;;;;6033947;23;20022;-83
2023/08/27 01:45:24;;;;;;;2.33;0.30;;;;;;;;;;6125209;23;20041;-84
2023/08/27 01:48:11;;;;;;;3.40;0.30;;;;;;;;;;6149250;23;20092;-86
2023/08/27 01:57:15;;;;;;;2.38;0.30;;;;;;;;;;6152162;23;20017;-84
2023/08/27 02:00:10;;;;;;;;;;;;;;;;;;;;;
2023/08/27 02:02:39;;;;;;;0.77;0.38;;;;;;;;;;6152865;23;20088;-86
2023/08/27 02:05:29;;;;;;;1.60;0.30;;;;;;;;;;6126971;23;20314;-86
2023/08/27 02:08:21;;;;;;;2.05;0.40;;;;;;;;;;6129265;23;20595;-86
2023/08/27 02:11:00;;;;;;;4.18;0.20;;;;;;;;;;6120170;23;20085;-85
2023/08/27 02:13:26;;;;;;;1.05;0.20;;;;;;;;;;6129318;23;20017;-85
2023/08/27 02:15:54;;;;;;;0.77;0.20;;;;;;;;;;6128603;23;20033;-86
2023/08/27 02:18:23;;;;;;;2.75;0.52;;;;;;;;;;6127855;23;20430;-86
2023/08/27 02:20:49;;;;;;;2.55;0.20;;;;;;;;;;6129162;23;20049;-85
2023/08/27 02:23:15;;;;;;;2.13;0.22;;;;;;;;;;6155539;23;20009;-84
2023/08/27 02:25:42;;;;;;;2.08;0.22;;;;;;;;;;6131765;23;20017;-85
2023/08/27 02:28:09;;;;;;;2.67;0.20;;;;;;;;;;6131995;23;20009;-84
2023/08/27 02:30:35;;;;;;;2.33;0.30;;;;;;;;;;6131326;23;20033;-85
2023/08/27 02:33:01;;;;;;;0.65;0.15;;;;;;;;;;6156423;23;20469;-85
2023/08/27 02:35:27;;;;;;;1.63;0.20;;;;;;;;;;6132302;23;20016;-84
2023/08/27 02:37:53;;;;;;;1.27;0.28;;;;;;;;;;6132053;23;20009;-84
2023/08/27 02:40:19;;;;;;;1.30;0.30;;;;;;;;;;6132004;23;20033;-85
2023/08/27 02:42:45;;;;;;;1.10;0.10;;;;;;;;;;6132432;23;20002;-85
2023/08/27 02:45:11;;;;;;;1.48;0.17;;;;;;;;;;6158834;23;20349;-84
2023/08/27 02:47:37;;;;;;;0.55;0.20;;;;;;;;;;6132091;23;20084;-84
2023/08/27 02:50:03;;;;;;;2.67;0.15;;;;;;;;;;6132528;23;20421;-85
2023/08/27 02:52:29;;;;;;;0.55;0.10;;;;;;;;;;6132207;23;20013;-82
2023/08/27 02:54:55;;;;;;;0.75;0.17;;;;;;;;;;6132017;23;20306;-83
2023/08/27 02:57:21;;;;;;;0.93;0.20;;;;;;;;;;6130468;23;20108;-83
2023/08/27 02:59:47;;;;;;;1.35;0.20;;;;;;;;;;6130759;23;20096;-84
2023/08/27 03:02:13;;;;;;;1.83;0.30;;;;;;;;;;6130693;23;20444;-83
2023/08/27 03:04:39;;;;;;;1.00;0.20;;;;;;;;;;6130637;23;20009;-83
2023/08/27 03:07:05;;;;;;;1.25;0.17;;;;;;;;;;6131240;23;20014;-83
2023/08/27 03:09:31;;;;;;;0.55;0.10;;;;;;;;;;6157461;23;20472;-83
2023/08/27 03:11:57;;;;;;;0.55;0.20;;;;;;;;;;6156155;23;20002;-82
2023/08/27 03:14:23;;;;;;;3.22;0.30;;;;;;;;;;6157014;23;20085;-82
2023/08/27 03:16:49;;;;;;;3.92;0.40;;;;;;;;;;6156671;23;20009;-83
2023/08/27 03:19:15;;;;;;;4.60;0.60;;;;;;;;;;6157715;23;20017;-82
2023/08/27 03:21:41;;;;;;;1.77;0.38;;;;;;;;;;6157248;23;20425;-83
2023/08/27 03:24:07;;;;;;;5.55;0.40;;;;;;;;;;6131463;23;20477;-83
2023/08/27 03:26:33;;;;;;;3.67;0.25;;;;;;;;;;6157978;23;20001;-83
2023/08/27 03:28:59;;;;;;;4.05;0.55;;;;;;;;;;6158201;23;20017;-83
2023/08/27 03:31:25;;;;;;;3.10;0.40;;;;;;;;;;6158006;23;20002;-83
2023/08/27 03:33:51;;;;;;;3.92;0.38;;;;;;;;;;6157942;23;20037;-83
2023/08/27 03:36:17;;;;;;;2.47;0.43;;;;;;;;;;6157935;23;20002;-83
2023/08/27 03:38:43;;;;;;;1.60;0.35;;;;;;;;;;6158105;23;20410;-83
2023/08/27 03:41:09;;;;;;;4.90;0.60;;;;;;;;;;6131565;23;20021;-82
2023/08/27 03:43:35;;;;;;;3.28;0.35;;;;;;;;;;6132027;23;20013;-83
2023/08/27 03:46:02;;;;;;;5.97;0.50;;;;;;;;;;6132015;23;20010;-83
2023/08/27 03:48:28;;;;;;;2.92;0.50;;;;;;;;;;6158773;23;20002;-83
2023/08/27 03:50:54;;;;;;;3.28;0.30;;;;;;;;;;6158130;23;20025;-83
2023/08/27 03:53:20;;;;;;;1.60;0.40;;;;;;;;;;6158371;23;20029;-83
2023/08/27 03:55:46;;;;;;;2.58;0.30;;;;;;;;;;6132096;23;20094;-83
2023/08/27 03:58:12;;;;;;;0.57;0.20;;;;;;;;;;6131752;23;20052;-83
2023/08/27 04:00:38;;;;;;;2.40;0.22;;;;;;;;;;6157267;23;20004;-84
2023/08/27 04:03:05;;;;;;;1.48;0.30;;;;;;;;;;6131854;23;20333;-83
2023/08/27 04:05:31;;;;;;;3.00;0.57;;;;;;;;;;6156740;23;20489;-83
2023/08/27 04:07:57;;;;;;;3.10;0.43;;;;;;;;;;6131167;23;20014;-84
2023/08/27 04:10:23;;;;;;;3.38;0.32;;;;;;;;;;6132098;23;20005;-84
2023/08/27 04:12:49;;;;;;;1.55;0.22;;;;;;;;;;6156915;23;20040;-85
2023/08/27 04:15:16;;;;;;;0.32;0.00;;;;;;;;;;6156494;23;20005;-84
2023/08/27 04:17:41;;;;;;;0.00;0.00;;;;;;;;;;6156728;23;20013;-84
2023/08/27 04:20:08;;;;;;;1.30;0.20;;;;;;;;;;6158096;23;20005;-84
2023/08/27 04:22:34;;;;;;;2.03;0.30;;;;;;;;;;6132085;23;20053;-84
2023/08/27 04:25:00;;;;;;;1.50;0.20;;;;;;;;;;6131782;23;20457;-83
2023/08/27 04:27:26;;;;;;;4.35;0.30;;;;;;;;;;6131515;23;20006;-84
2023/08/27 04:29:52;;;;;;;1.60;0.50;;;;;;;;;;6130779;23;20016;-84
2023/08/27 04:32:18;;;;;;;2.08;0.50;;;;;;;;;;6131976;23;20006;-84
2023/08/27 04:34:44;;;;;;;1.88;0.17;;;;;;;;;;6157778;23;20010;-84
2023/08/27 04:37:10;;;;;;;1.15;0.20;;;;;;;;;;6156887;23;20005;-83
2023/08/27 04:39:36;;;;;;;0.77;0.13;;;;;;;;;;6157119;23;20013;-83
2023/08/27 04:42:02;;;;;;;1.02;0.30;;;;;;;;;;6130417;23;20084;-84
2023/08/27 04:44:31;;;;;;;1.90;0.15;;;;;;;;;;6129742;23;20017;-83
2023/08/27 04:46:57;;;;;;;1.08;0.25;;;;;;;;;;6129064;23;20378;-83
2023/08/27 04:49:23;;;;;;;0.63;0.20;;;;;;;;;;6154502;23;20013;-83
2023/08/27 04:51:49;;;;;;;2.55;0.55;;;;;;;;;;6155212;23;20456;-84
2023/08/27 04:54:15;;;;;;;1.38;0.30;;;;;;;;;;6155697;23;20017;-83
2023/08/27 04:56:41;;;;;;;0.82;0.20;;;;;;;;;;6129447;23;20056;-83
2023/08/27 04:59:07;;;;;;;0.82;0.20;;;;;;;;;;6129915;23;20372;-84
2023/08/27 05:01:33;;;;;;;0.73;0.17;;;;;;;;;;6156396;23;20033;-84
2023/08/27 05:03:59;;;;;;;1.48;0.20;;;;;;;;;;6154724;23;20029;-84
2023/08/27 05:06:25;;;;;;;2.10;0.40;;;;;;;;;;6128668;23;20406;-84
2023/08/27 05:08:51;;;;;;;1.45;0.30;;;;;;;;;;6128965;23;20014;-83
2023/08/27 05:11:16;;;;;;;2.58;0.85;;;;;;;;;;6154584;23;20009;-83
2023/08/27 05:13:43;;;;;;;2.47;0.60;;;;;;;;;;6154112;23;20100;-83
2023/08/27 05:16:09;;;;;;;1.25;0.40;;;;;;;;;;6128449;23;20409;-83
2023/08/27 05:18:35;;;;;;;1.58;0.30;;;;;;;;;;6154204;23;20021;-83
2023/08/27 05:21:01;;;;;;;1.35;0.40;;;;;;;;;;6127611;23;20013;-83
2023/08/27 05:23:27;;;;;;;1.85;0.30;;;;;;;;;;6127582;23;20303;-83
2023/08/27 05:25:53;;;;;;;0.98;0.25;;;;;;;;;;6127295;23;20014;-82
2023/08/27 05:28:19;;;;;;;3.25;0.57;;;;;;;;;;6154728;23;20020;-83
2023/08/27 05:30:46;;;;;;;3.20;0.20;;;;;;;;;;6129089;23;20005;-83
2023/08/27 05:33:11;;;;;;;0.43;0.20;;;;;;;;;;6127325;23;20013;-85
2023/08/27 05:35:37;;;;;;;2.70;0.20;;;;;;;;;;6128035;23;20033;-84
2023/08/27 05:38:04;;;;;;;1.25;0.20;;;;;;;;;;6127298;23;20093;-84
2023/08/27 05:40:30;;;;;;;1.42;0.50;;;;;;;;;;6127679;23;20048;-84
2023/08/27 05:42:56;;;;;;;1.85;0.20;;;;;;;;;;6127833;23;20022;-85
2023/08/27 05:45:22;;;;;;;1.48;0.17;;;;;;;;;;6126667;23;20012;-84
2023/08/27 05:47:48;;;;;;;1.05;0.20;;;;;;;;;;6127474;23;20473;-85
2023/08/27 05:50:14;;;;;;;1.65;0.25;;;;;;;;;;6127316;23;20040;-84
2023/08/27 05:52:40;;;;;;;1.25;0.10;;;;;;;;;;6153727;23;20022;-84
2023/08/27 05:55:07;;;;;;;4.35;0.60;;;;;;;;;;6127059;23;20456;-84
2023/08/27 05:57:33;;;;;;;1.27;0.30;;;;;;;;;;6126844;23;20009;-85
2023/08/27 05:59:59;;;;;;;3.20;0.47;;;;;;;;;;6127516;23;20013;-84
2023/08/27 06:02:25;;;;;;;2.20;0.45;;;;;;;;;;6128495;23;20369;-83
2023/08/27 06:04:51;;;;;;;11.07;0.63;;;;;;;;;;6129890;23;20346;-84
2023/08/27 06:07:17;;;;;;;2.47;0.30;;;;;;;;;;6131375;23;20037;-84
2023/08/27 06:09:43;;;;;;;1.20;0.20;;;;;;;;;;6157763;23;20013;-86
2023/08/27 06:12:19;;;;;;;1.02;0.20;;;;;;;;;;6131270;23;20005;-86
2023/08/27 06:17:28;;;;;;;2.00;0.20;;;;;;;;;;6158627;23;20040;-87
2023/08/27 06:19:54;;;;;;;1.95;0.95;;;;;;;;;;6133562;23;20903;-85
2023/08/27 06:22:30;;;;;;;;;;;;;;;;;;;;;
2023/08/27 06:25:17;;;;;;;3.55;0.30;;;;;;;;;;6165257;23;20088;-85
2023/08/27 06:30:23;;;;;;;3.80;0.47;;;;;;;;;;6152013;23;20026;-86
2023/08/27 06:32:49;;;;;;;7.32;0.80;;;;;;;;;;6127215;23;20009;-87
2023/08/27 06:35:17;;;;;;;1.73;0.50;;;;;;;;;;6125496;23;20025;-85
2023/08/27 06:37:43;;;;;;;2.80;0.68;;;;;;;;;;6126203;23;20439;-85
2023/08/27 06:46:15;;;;;;;3.00;0.30;;;;;;;;;;6150631;23;20129;-85
2023/08/27 06:48:41;;;;;;;4.20;0.30;;;;;;;;;;6140425;23;20025;-85
2023/08/27 06:51:07;;;;;;;0.35;0.20;;;;;;;;;;6186506;23;20637;-85
2023/08/27 06:53:33;;;;;;;3.30;0.40;;;;;;;;;;6160324;23;20072;-84
2023/08/27 06:55:59;;;;;;;2.03;0.40;;;;;;;;;;6160360;23;20290;-84
2023/08/27 06:58:25;;;;;;;2.75;0.40;;;;;;;;;;6187087;23;20005;-85
2023/08/27 07:00:52;;;;;;;2.38;0.50;;;;;;;;;;6186458;23;20028;-86
2023/08/27 07:03:19;;;;;;;2.60;0.40;;;;;;;;;;6185507;23;20016;-85
2023/08/27 07:05:45;;;;;;;2.22;0.50;;;;;;;;;;6184154;23;20011;-86
2023/08/27 07:08:11;;;;;;;3.55;0.47;;;;;;;;;;6158920;23;20091;-87
2023/08/27 07:10:38;;;;;;;1.55;0.22;;;;;;;;;;6159120;23;20425;-86
2023/08/27 07:13:04;;;;;;;5.30;0.38;;;;;;;;;;6161862;23;20033;-86
2023/08/27 07:15:30;;;;;;;1.88;0.20;;;;;;;;;;6162155;23;20005;-86
2023/08/27 07:17:56;;;;;;;3.83;0.40;;;;;;;;;;6161981;23;20286;-86
2023/08/27 07:20:26;;;;;;;1.75;0.30;;;;;;;;;;6188362;23;20421;-85
2023/08/27 07:22:55;;;;;;;2.92;0.40;;;;;;;;;;6162110;23;20014;-86
2023/08/27 07:25:23;;;;;;;1.77;0.32;;;;;;;;;;6162035;23;20039;-85
2023/08/27 07:27:49;;;;;;;5.93;0.32;;;;;;;;;;6161798;23;20052;-86
2023/08/27 07:30:15;;;;;;;4.30;0.38;;;;;;;;;;6161616;23;20091;-84
2023/08/27 07:32:41;;;;;;;0.90;0.20;;;;;;;;;;6187815;23;20025;-84
2023/08/27 07:35:29;;;;;;;1.73;0.30;;;;;;;;;;6161768;23;20001;-86
2023/08/27 07:37:55;;;;;;;1.95;0.50;;;;;;;;;;6160066;23;20020;-86
2023/08/27 07:40:21;;;;;;;2.33;0.40;;;;;;;;;;6161159;23;20128;-87
2023/08/27 07:46:44;;;;;;;;;;;;;;;;;;;;;
2023/08/27 07:49:42;;;;;;;1.92;0.30;;;;;;;;;;6186445;23;20092;-87
2023/08/27 08:13:06;;;;;;;4.80;0.55;;;;;;;;;;6169959;22;20169;-88
2023/08/27 08:56:58;;;;;;;1.65;0.30;;;;;;;;;;6172437;23;20036;-86
2023/08/27 09:00:01;;;;;;;2.22;0.30;;;;;;;;;;6186034;23;20100;-87
2023/08/27 09:02:39;;;;;;;2.13;0.50;;;;;;;;;;6185669;23;20311;-86
2023/08/27 09:05:32;;;;;;;2.20;0.30;;;;;;;;;;6183182;23;20021;-86
2023/08/27 09:08:18;;;;;;;4.18;0.43;;;;;;;;;;6170688;23;20049;-88
2023/08/27 11:57:36;;;;;;;3.35;0.40;;;;;;;;;;6163272;23;20036;-87
2023/08/27 12:00:27;;;;;;;1.35;0.30;;;;;;;;;;6115789;23;20025;-88
2023/08/27 12:46:50;;;;;;;2.08;0.50;;;;;;;;;;6154740;23;20078;-88
2023/08/27 13:29:53;;;;;;;0.90;0.30;;;;;;;;;;6176850;23;20172;-85
2023/08/27 13:48:30;;;;;;;0.70;0.28;;;;;;;;;;6153915;23;20142;-85
2023/08/27 13:50:56;;;;;;;0.85;0.22;;;;;;;;;;6156750;23;20019;-84
2023/08/27 14:24:17;;;;;;;0.73;0.25;;;;;;;;;;6067829;23;20420;-85
2023/08/27 14:27:06;;;;;;;1.17;0.40;;;;;;;;;;6042566;23;20439;-84
2023/08/27 14:29:34;;;;;;;0.47;0.30;;;;;;;;;;6185309;23;20008;-82
2023/08/27 14:44:08;;;;;;;1.50;0.40;;;;;;;;;;6067639;23;20006;-83
2023/08/27 14:46:40;;;;;;;0.88;0.40;;;;;;;;;;6067465;23;20106;-84
2023/08/27 14:49:10;;;;;;;2.22;0.45;;;;;;;;;;6066728;23;20007;-83
2023/08/27 14:51:36;;;;;;;0.63;0.40;;;;;;;;;;6084101;23;20112;-83
2023/08/27 14:54:03;;;;;;;1.63;0.40;;;;;;;;;;6130555;23;20006;-82
2023/08/27 14:56:29;;;;;;;2.58;0.30;;;;;;;;;;6154745;23;20037;-84
2023/08/27 14:58:55;;;;;;;2.70;0.50;;;;;;;;;;6153486;23;20022;-84
2023/08/27 15:01:40;;;;;;;2.05;0.70;;;;;;;;;;6128570;23;20017;-85
2023/08/27 15:07:04;;;;;;;4.00;0.60;;;;;;;;;;6151761;23;20013;-85
2023/08/27 15:09:39;;;;;;;5.03;1.15;;;;;;;;;;6126105;23;20052;-85
2023/08/27 15:12:15;;;;;;;6.43;1.25;;;;;;;;;;6126159;23;20089;-85
2023/08/27 15:14:41;;;;;;;5.78;0.95;;;;;;;;;;6125013;23;20340;-86
2023/08/27 15:17:07;;;;;;;3.05;0.68;;;;;;;;;;6125062;23;20056;-85
2023/08/27 15:19:33;;;;;;;4.00;0.75;;;;;;;;;;6125425;23;20020;-85
2023/08/27 15:21:59;;;;;;;2.58;0.70;;;;;;;;;;6125642;23;20018;-86
2023/08/27 15:27:01;;;;;;;1.58;0.50;;;;;;;;;;6157300;23;20029;-84
2023/08/27 15:29:30;;;;;;;2.90;0.60;;;;;;;;;;6128835;23;20002;-85
2023/08/27 15:31:56;;;;;;;3.50;0.70;;;;;;;;;;6129976;23;20460;-85
2023/08/27 15:34:37;;;;;;;1.67;0.65;;;;;;;;;;6157548;23;20005;-86
2023/08/27 15:43:19;;;;;;;4.82;1.55;;;;;;;;;;6110270;23;20341;-86
2023/08/27 15:49:15;;;;;;;2.83;0.85;;;;;;;;;;6125755;23;20079;-89
2023/08/27 16:21:58;;;;;;;2.33;0.60;;;;;;;;;;6138461;23;21653;-87
2023/08/27 16:30:34;;;;;;;4.20;0.60;;;;;;;;;;6160415;23;20033;-85
2023/08/27 16:36:16;;;;;;;2.20;0.82;;;;;;;;;;6158012;23;20041;-85
2023/08/27 16:48:22;;;;;;;1.75;0.68;;;;;;;;;;6157095;22;20068;-85
2023/08/27 17:01:11;;;;;;;1.35;0.60;;;;;;;;;;6184691;22;20266;-90
2023/08/27 17:04:08;;;;;;;3.60;0.75;;;;;;;;;;6157444;23;20027;-89
2023/08/27 17:28:38;;;;;;;2.22;0.68;;;;;;;;;;6186606;23;20032;-86
2023/08/27 17:31:17;;;;;;;;;;;;;;;;;;;;;
2023/08/27 17:48:48;;;;;;;1.25;0.47;;;;;;;;;;6169616;23;20021;-84
2023/08/27 17:51:26;;;;;;;1.98;0.60;;;;;;;;;;6185418;23;20024;-84
2023/08/27 17:57:15;;;;;;;2.58;0.80;;;;;;;;;;6086921;23;20939;-84
2023/08/27 18:14:34;;;;;;;1.48;0.70;;;;;;;;;;6124507;23;20454;-87
2023/08/27 18:17:07;;;;;;;4.57;0.47;;;;;;;;;;6100478;23;20021;-87
2023/08/27 18:19:38;;;;;;;1.90;0.68;;;;;;;;;;6099037;23;20330;-86
2023/08/27 18:22:25;;;;;;;1.83;0.43;;;;;;;;;;6101151;23;20013;-87
2023/08/27 18:24:57;;;;;;;3.13;0.70;;;;;;;;;;6100329;23;20088;-87
2023/08/27 18:27:25;;;;;;;5.28;0.63;;;;;;;;;;6100355;23;20006;-86
2023/08/27 18:30:02;;;;;;;1.80;0.50;;;;;;;;;;6100144;23;20050;-87
2023/08/27 18:32:33;;;;;;;1.58;0.60;;;;;;;;;;6100720;23;20363;-87
2023/08/27 18:34:59;;;;;;;8.57;0.93;;;;;;;;;;6098478;23;20037;-87
2023/08/27 18:37:52;;;;;;;2.80;0.60;;;;;;;;;;6100745;23;20093;-87
2023/08/27 18:40:28;;;;;;;1.98;0.68;;;;;;;;;;6099235;23;20018;-86
2023/08/27 18:43:04;;;;;;;6.97;0.90;;;;;;;;;;6100133;23;20014;-87
2023/08/27 18:45:33;;;;;;;2.65;0.80;;;;;;;;;;6098931;23;20018;-87
2023/08/27 18:48:00;;;;;;;2.67;0.55;;;;;;;;;;6100626;23;20013;-87
2023/08/27 18:50:36;;;;;;;4.32;0.50;;;;;;;;;;6100545;23;20013;-87
2023/08/27 18:53:02;;;;;;;3.75;0.50;;;;;;;;;;6100223;23;20033;-87
2023/08/27 18:55:28;;;;;;;2.78;0.50;;;;;;;;;;6098474;23;20029;-87
2023/08/27 18:57:57;;;;;;;2.67;0.30;;;;;;;;;;6100378;23;20018;-87
2023/08/27 19:00:41;;;;;;;1.90;0.50;;;;;;;;;;6086850;23;20351;-87
2023/08/27 19:03:17;;;;;;;2.15;0.60;;;;;;;;;;6068545;23;20101;-87
2023/08/27 19:05:51;;;;;;;4.78;0.55;;;;;;;;;;6069987;23;20018;-87
2023/08/27 19:08:36;;;;;;;2.67;0.60;;;;;;;;;;6072367;23;20430;-87
2023/08/27 19:11:06;;;;;;;1.50;0.40;;;;;;;;;;6072193;23;20018;-86
